OMFJ/FJR METAR and TAF weather

Enter ICAO airport designator
Station Type Date Time Source
OMFJ METAR 2021/05/14 21:00 UTC NOAA

OMFJ 142100Z 07004KT 4000 HZ FEW010 30/29 Q1000 A2953


Station Type Date Time Source
OMFJ Decoded METAR 2021/05/14 21:00 UTC NOAA

Fujairah, United Arab Emirates (OMFJ) 25-06N 056-20E 28M
May 14, 2021 - 05:00 PM EDT / 2021.05.14 2100 UTC
Wind: from the ENE (070 degrees) at 5 MPH (4 KT):0
Visibility: 2 mile(s):0
Sky conditions: mostly clear
Weather: haze
Temperature: 86 F (30 C)
Heat index: 107.8 F (42.1 C):1
Dew Point: 84 F (29 C)
Relative Humidity: 94%
Pressure (altimeter): 29.53 in. Hg (1000 hPa)
ob: OMFJ 142100Z 07004KT 4000 HZ FEW010 30/29 Q1000 A2953
cycle: 21

Station Type Date Time Source
OMFJ TAF 2021/05/14 18:03 UTC NOAA

TAF TAF OMFJ 141700Z 1418/1524 29008KT CAVOK
BECMG 1506/1508 09008KT
BECMG 1514/1516 VRB03KT
BECMG 1522/1524 29006KT

Example: see airport list